createdAt,value
2022-07-31T00:01:05.067Z,5.37
2022-07-31T00:03:35.861Z,5.67
2022-07-31T00:06:06.657Z,5.53
2022-07-31T00:08:39.752Z,5.50
2022-07-31T00:11:12.451Z,5.60
2022-07-31T00:13:56.374Z,4.83
2022-07-31T00:16:30.723Z,6.00
2022-07-31T00:19:01.459Z,5.40
2022-07-31T00:21:32.198Z,5.60
2022-07-31T00:24:02.890Z,5.47
2022-07-31T00:26:33.607Z,5.53
2022-07-31T00:29:04.356Z,6.10
2022-07-31T00:31:36.679Z,5.57
2022-07-31T00:34:09.714Z,5.27
2022-07-31T00:36:40.529Z,5.40
2022-07-31T00:39:11.425Z,5.93
2022-07-31T00:41:43.951Z,5.27
2022-07-31T00:44:15.488Z,5.60
2022-07-31T00:46:50.966Z,5.27
2022-07-31T00:49:21.748Z,4.90
2022-07-31T00:51:52.699Z,4.93
2022-07-31T00:54:23.984Z,4.43
2022-07-31T00:56:54.723Z,5.50
2022-07-31T00:59:25.484Z,4.97
2022-07-31T01:02:00.002Z,5.50
2022-07-31T01:04:31.146Z,5.67
2022-07-31T01:07:02.881Z,5.30
2022-07-31T01:09:33.993Z,5.33
2022-07-31T01:12:09.892Z,5.37
2022-07-31T01:14:44.320Z,5.13
2022-07-31T01:17:19.412Z,5.83
2022-07-31T01:19:51.949Z,5.63
2022-07-31T01:22:46.395Z,5.57
2022-07-31T01:25:27.633Z,5.47
2022-07-31T01:28:08.211Z,6.10
2022-07-31T01:30:52.965Z,5.37
2022-07-31T01:33:37.151Z,4.87
2022-07-31T01:36:14.697Z,5.40
2022-07-31T01:38:50.746Z,4.90
2022-07-31T01:41:25.273Z,5.83
2022-07-31T01:43:58.874Z,5.30
2022-07-31T01:46:31.801Z,5.40
2022-07-31T01:49:13.750Z,5.27
2022-07-31T01:51:46.490Z,5.43
2022-07-31T01:54:19.184Z,5.13
2022-07-31T01:56:51.557Z,5.40
2022-07-31T01:59:24.532Z,5.17
2022-07-31T02:01:58.442Z,5.37
2022-07-31T02:04:31.280Z,6.10
2022-07-31T02:07:04.832Z,5.40
2022-07-31T02:09:37.468Z,4.73
2022-07-31T02:12:10.655Z,5.10
2022-07-31T02:14:42.957Z,5.10
2022-07-31T02:17:16.374Z,5.17
2022-07-31T02:20:00.196Z,5.43
2022-07-31T02:22:31.836Z,4.93
2022-07-31T02:25:02.747Z,5.30
2022-07-31T02:27:55.410Z,5.30
2022-07-31T02:30:25.581Z,5.30
2022-07-31T02:32:58.268Z,5.70
2022-07-31T02:35:29.664Z,6.27
2022-07-31T02:38:00.840Z,6.70
2022-07-31T02:40:32.173Z,5.13
2022-07-31T02:43:03.109Z,4.97
2022-07-31T02:45:38.412Z,5.30
2022-07-31T02:48:11.344Z,4.63
2022-07-31T02:50:42.616Z,5.00
2022-07-31T02:53:13.588Z,4.33
2022-07-31T02:55:46.719Z,4.33
2022-07-31T02:58:17.473Z,4.93
2022-07-31T03:00:48.521Z,4.93
2022-07-31T03:03:20.922Z,5.00
2022-07-31T03:05:51.614Z,4.70
2022-07-31T03:08:22.332Z,5.20
2022-07-31T03:10:53.332Z,4.73
2022-07-31T03:13:27.045Z,5.00
2022-07-31T03:15:58.424Z,5.00
2022-07-31T03:18:31.563Z,4.10
2022-07-31T03:21:02.304Z,4.40
2022-07-31T03:23:37.138Z,4.93
2022-07-31T03:26:08.238Z,4.37
2022-07-31T03:28:39.077Z,4.80
2022-07-31T03:31:11.097Z,4.23
2022-07-31T03:33:43.544Z,4.83
2022-07-31T03:36:14.318Z,4.57
2022-07-31T03:38:50.110Z,5.20
2022-07-31T03:41:21.415Z,4.90
2022-07-31T03:43:53.297Z,4.57
2022-07-31T03:46:26.922Z,4.13
2022-07-31T03:48:59.620Z,4.40
2022-07-31T03:51:30.579Z,3.97
2022-07-31T03:54:01.448Z,4.63
2022-07-31T03:56:32.959Z,4.60
2022-07-31T03:59:03.905Z,5.10
2022-07-31T04:01:57.686Z,5.00
2022-07-31T04:04:30.255Z,4.87
2022-07-31T04:07:01.031Z,4.10
2022-07-31T04:09:31.819Z,4.97
2022-07-31T04:12:02.929Z,4.60
2022-07-31T04:14:36.384Z,4.73
2022-07-31T04:17:07.174Z,3.60
2022-07-31T04:19:40.132Z,5.40
2022-07-31T04:22:10.863Z,4.27
2022-07-31T04:24:41.914Z,4.10
2022-07-31T04:27:13.070Z,4.53
2022-07-31T04:29:44.325Z,5.00
2022-07-31T04:32:18.705Z,4.60
2022-07-31T04:34:51.052Z,4.67
2022-07-31T04:37:22.133Z,4.63
2022-07-31T04:39:53.003Z,4.30
2022-07-31T04:42:23.875Z,4.43
2022-07-31T04:44:54.725Z,4.10
2022-07-31T04:47:25.509Z,4.17
2022-07-31T04:49:57.897Z,4.40
2022-07-31T04:52:30.622Z,4.80
2022-07-31T04:55:01.361Z,4.70
2022-07-31T04:57:32.049Z,5.30
2022-07-31T05:00:02.767Z,4.40
2022-07-31T05:02:33.563Z,4.00
2022-07-31T05:05:06.106Z,4.07
2022-07-31T05:07:36.855Z,4.17
2022-07-31T05:10:08.317Z,4.03
2022-07-31T05:12:39.175Z,4.40
2022-07-31T05:15:11.051Z,4.83
2022-07-31T05:17:41.956Z,4.23
2022-07-31T05:20:15.209Z,4.07
2022-07-31T05:22:45.942Z,4.50
2022-07-31T05:25:16.652Z,4.83
2022-07-31T05:27:47.398Z,4.37
2022-07-31T05:30:29.811Z,4.33
2022-07-31T05:33:04.440Z,4.23
2022-07-31T05:35:37.932Z,4.40
2022-07-31T05:38:11.815Z,3.73
2022-07-31T05:40:42.814Z,3.60
2022-07-31T05:43:13.588Z,3.93
2022-07-31T05:45:44.343Z,3.97
2022-07-31T05:48:15.077Z,3.47
2022-07-31T05:50:48.205Z,3.50
2022-07-31T05:53:19.520Z,3.90
2022-07-31T05:55:52.386Z,4.30
2022-07-31T05:58:23.560Z,3.60
2022-07-31T06:00:54.863Z,5.03
2022-07-31T06:03:28.635Z,4.20
2022-07-31T06:06:01.023Z,3.53
2022-07-31T06:08:32.096Z,4.00
2022-07-31T06:11:03.071Z,4.10
2022-07-31T06:13:33.824Z,4.20
2022-07-31T06:16:04.551Z,4.47
2022-07-31T06:18:35.324Z,4.63
2022-07-31T06:21:07.744Z,4.93
2022-07-31T06:23:38.524Z,3.90
2022-07-31T06:26:09.343Z,4.17
2022-07-31T06:28:49.296Z,4.63
2022-07-31T06:31:21.337Z,4.13
2022-07-31T06:33:52.957Z,4.17
2022-07-31T06:36:25.372Z,4.70
2022-07-31T06:38:56.104Z,4.57
2022-07-31T06:41:43.352Z,3.70
2022-07-31T06:44:14.137Z,4.47
2022-07-31T06:46:48.701Z,3.87
2022-07-31T06:49:20.531Z,3.97
2022-07-31T06:51:52.935Z,4.00
2022-07-31T06:54:26.796Z,3.97
2022-07-31T06:56:58.081Z,3.80
2022-07-31T06:59:39.353Z,3.53
2022-07-31T07:02:11.797Z,3.97
2022-07-31T07:05:04.342Z,3.57
2022-07-31T07:07:37.107Z,3.50
2022-07-31T07:10:08.569Z,4.40
2022-07-31T07:12:39.311Z,4.53
2022-07-31T07:15:11.387Z,3.97
2022-07-31T07:17:42.854Z,3.47
2022-07-31T07:20:14.579Z,3.90
2022-07-31T07:22:46.956Z,4.10
2022-07-31T07:25:17.672Z,4.30
2022-07-31T07:27:48.464Z,3.57
2022-07-31T07:30:19.176Z,3.97
2022-07-31T07:32:49.926Z,3.63
2022-07-31T07:35:20.800Z,3.87
2022-07-31T07:37:53.241Z,3.60
2022-07-31T07:40:24.280Z,4.07
2022-07-31T07:42:56.309Z,4.10
2022-07-31T07:45:29.530Z,3.87
2022-07-31T07:48:07.086Z,3.23
2022-07-31T07:50:38.325Z,4.50
2022-07-31T07:53:10.748Z,4.30
2022-07-31T07:55:41.744Z,3.70
2022-07-31T07:58:12.477Z,4.10
2022-07-31T08:00:43.371Z,4.30
2022-07-31T08:03:50.974Z,4.80
2022-07-31T08:06:04.880Z,3.87
2022-07-31T08:08:37.269Z,4.03
2022-07-31T08:11:07.975Z,4.50
2022-07-31T08:13:40.842Z,4.50
2022-07-31T08:16:11.767Z,3.60
2022-07-31T08:18:42.502Z,3.87
2022-07-31T08:21:13.224Z,3.93
2022-07-31T08:23:45.795Z,4.33
2022-07-31T08:26:18.179Z,3.97
2022-07-31T08:28:50.084Z,4.37
2022-07-31T08:31:22.199Z,3.90
2022-07-31T08:33:53.756Z,3.77
2022-07-31T08:36:25.733Z,3.90
2022-07-31T08:38:58.084Z,4.50
2022-07-31T08:41:29.006Z,4.37
2022-07-31T08:44:04.187Z,4.67
2022-07-31T08:46:38.923Z,3.73
2022-07-31T08:49:12.797Z,4.40
2022-07-31T08:51:51.597Z,4.03
2022-07-31T08:54:27.021Z,3.90
2022-07-31T08:56:57.750Z,4.53
2022-07-31T08:59:28.577Z,4.63
2022-07-31T09:02:00.255Z,3.80
2022-07-31T09:04:32.518Z,5.00
2022-07-31T09:07:03.602Z,4.43
2022-07-31T09:09:45.232Z,4.07
2022-07-31T09:12:32.474Z,4.10
2022-07-31T09:15:04.594Z,3.50
2022-07-31T09:17:37.173Z,3.90
2022-07-31T09:20:19.239Z,4.77
2022-07-31T09:22:50.567Z,3.73
2022-07-31T09:25:22.983Z,4.03
2022-07-31T09:28:03.624Z,4.57
2022-07-31T09:30:35.553Z,4.30
2022-07-31T09:33:26.268Z,3.83
2022-07-31T09:35:57.893Z,3.70
2022-07-31T09:38:34.592Z,3.70
2022-07-31T09:41:56.873Z,4.43
2022-07-31T09:44:09.403Z,4.00
2022-07-31T09:46:45.581Z,4.10
2022-07-31T09:49:16.811Z,4.00
2022-07-31T09:51:49.819Z,4.33
2022-07-31T09:54:24.822Z,4.20
2022-07-31T09:56:57.680Z,4.03
2022-07-31T09:59:28.574Z,4.13
2022-07-31T10:01:59.833Z,3.60
2022-07-31T10:04:31.021Z,4.93
2022-07-31T10:07:03.020Z,4.77
2022-07-31T10:09:35.220Z,4.23
2022-07-31T10:12:12.418Z,4.07
2022-07-31T10:14:47.628Z,4.57
2022-07-31T10:17:26.191Z,4.53
2022-07-31T10:20:00.607Z,4.00
2022-07-31T10:22:32.889Z,4.90
2022-07-31T10:25:05.159Z,4.30
2022-07-31T10:27:39.400Z,4.00
2022-07-31T10:30:11.709Z,4.80
2022-07-31T10:32:42.818Z,4.47
2022-07-31T10:35:14.177Z,4.63
2022-07-31T10:37:56.169Z,4.87
2022-07-31T10:40:36.371Z,4.93
2022-07-31T10:43:22.418Z,4.63
2022-07-31T10:45:54.184Z,4.73
2022-07-31T10:48:25.915Z,4.57
2022-07-31T10:51:05.318Z,3.80
2022-07-31T10:53:51.015Z,4.47
2022-07-31T10:56:26.046Z,4.30
2022-07-31T10:59:00.440Z,3.90
2022-07-31T11:01:31.265Z,4.13
2022-07-31T11:04:05.968Z,4.27
2022-07-31T11:06:42.992Z,4.53
2022-07-31T11:09:24.115Z,3.87
2022-07-31T11:11:55.512Z,4.50
2022-07-31T11:14:39.727Z,4.23
2022-07-31T11:17:10.475Z,4.27
2022-07-31T11:19:42.402Z,4.23
2022-07-31T11:22:31.291Z,4.67
2022-07-31T11:25:03.668Z,3.73
2022-07-31T11:27:34.877Z,4.23
2022-07-31T11:30:13.601Z,4.07
2022-07-31T11:32:49.664Z,6.67
2022-07-31T11:35:31.043Z,6.20
2022-07-31T11:38:02.147Z,3.63
2022-07-31T11:40:32.963Z,4.23
2022-07-31T11:43:25.769Z,4.13
2022-07-31T11:45:58.716Z,4.10
2022-07-31T11:48:38.101Z,4.20
2022-07-31T11:51:10.790Z,5.27
2022-07-31T11:53:44.451Z,4.47
2022-07-31T11:56:18.054Z,4.47
2022-07-31T11:58:51.174Z,4.00
2022-07-31T12:01:28.178Z,4.47
2022-07-31T12:04:08.599Z,4.10
2022-07-31T12:06:40.346Z,3.70
2022-07-31T12:10:01.348Z,3.83
2022-07-31T12:12:02.952Z,3.80
2022-07-31T12:14:36.050Z,3.47
2022-07-31T12:17:10.079Z,4.03
2022-07-31T12:19:45.567Z,4.40
2022-07-31T12:22:17.208Z,3.43
2022-07-31T12:24:48.377Z,4.60
2022-07-31T12:27:20.043Z,4.87
2022-07-31T12:29:50.782Z,4.50
2022-07-31T12:32:30.117Z,4.07
2022-07-31T12:35:07.670Z,3.53
2022-07-31T12:37:47.311Z,4.40
2022-07-31T12:40:28.560Z,3.60
2022-07-31T12:43:00.379Z,4.53
2022-07-31T12:45:36.330Z,4.70
2022-07-31T12:48:09.355Z,3.40
2022-07-31T12:50:40.052Z,6.20
2022-07-31T12:53:10.811Z,4.57
2022-07-31T12:55:41.580Z,3.93
2022-07-31T12:58:12.307Z,4.07
2022-07-31T13:00:43.036Z,4.30
2022-07-31T13:03:15.370Z,4.10
2022-07-31T13:05:50.340Z,5.93
2022-07-31T13:08:22.810Z,3.20
2022-07-31T13:10:53.503Z,4.27
2022-07-31T13:13:24.782Z,3.97
2022-07-31T13:15:55.534Z,3.67
2022-07-31T13:18:27.905Z,3.70
2022-07-31T13:20:58.631Z,4.13
2022-07-31T13:23:29.391Z,3.83
2022-07-31T13:26:01.497Z,3.50
2022-07-31T13:28:32.288Z,4.73
2022-07-31T13:31:03.033Z,3.90
2022-07-31T13:33:35.447Z,3.87
2022-07-31T13:36:09.240Z,3.90
2022-07-31T13:38:39.955Z,3.93
2022-07-31T13:41:24.864Z,3.87
2022-07-31T13:44:00.256Z,4.00
2022-07-31T13:46:32.089Z,4.20
2022-07-31T13:49:09.085Z,4.80
2022-07-31T13:51:40.816Z,4.60
2022-07-31T13:54:11.801Z,3.63
2022-07-31T13:56:43.676Z,3.70
2022-07-31T13:59:15.552Z,4.17
2022-07-31T14:02:03.781Z,4.07
2022-07-31T14:04:39.673Z,3.30
2022-07-31T14:07:13.096Z,4.00
2022-07-31T14:09:55.246Z,3.63
2022-07-31T14:12:26.606Z,3.53
2022-07-31T14:14:57.338Z,4.30
2022-07-31T14:17:28.078Z,3.63
2022-07-31T14:20:00.428Z,3.60
2022-07-31T14:22:33.424Z,4.20
2022-07-31T14:25:04.290Z,3.57
2022-07-31T14:27:35.190Z,3.20
2022-07-31T14:30:06.269Z,3.70
2022-07-31T14:32:37.062Z,3.33
2022-07-31T14:35:10.701Z,3.73
2022-07-31T14:37:42.580Z,3.43
2022-07-31T14:40:14.553Z,4.20
2022-07-31T14:42:45.530Z,3.70
2022-07-31T14:45:16.421Z,4.10
2022-07-31T14:47:47.255Z,5.80
2022-07-31T14:50:20.128Z,3.43
2022-07-31T14:52:50.966Z,3.43
2022-07-31T14:55:21.856Z,3.30
2022-07-31T14:57:52.868Z,2.97
2022-07-31T15:00:23.628Z,3.20
2022-07-31T15:02:54.342Z,4.50
2022-07-31T15:06:40.930Z,4.07
2022-07-31T15:08:17.658Z,3.83
2022-07-31T15:10:48.393Z,3.20
2022-07-31T15:13:19.289Z,2.83
2022-07-31T15:15:50.751Z,3.53
2022-07-31T15:18:21.547Z,3.60
2022-07-31T15:20:58.144Z,3.00
2022-07-31T15:23:35.942Z,3.20
2022-07-31T15:26:06.921Z,2.93
2022-07-31T15:28:37.688Z,2.70
2022-07-31T15:31:09.624Z,3.50
2022-07-31T15:33:41.148Z,3.33
2022-07-31T15:36:15.361Z,2.80
2022-07-31T15:38:46.180Z,3.00
2022-07-31T15:41:18.999Z,3.33
2022-07-31T15:43:49.921Z,4.07
2022-07-31T15:46:20.652Z,2.93
2022-07-31T15:48:52.861Z,3.13
2022-07-31T15:51:25.257Z,3.20
2022-07-31T15:53:56.061Z,2.67
2022-07-31T15:56:26.923Z,2.93
2022-07-31T15:58:58.682Z,3.13
2022-07-31T16:01:29.493Z,3.10
2022-07-31T16:04:00.295Z,3.20
2022-07-31T16:06:32.910Z,2.80
2022-07-31T16:09:03.665Z,2.70
2022-07-31T16:12:05.145Z,2.63
2022-07-31T16:14:25.192Z,3.17
2022-07-31T16:17:03.494Z,2.60
2022-07-31T16:19:35.053Z,3.07
2022-07-31T16:22:07.796Z,3.13
2022-07-31T16:24:39.091Z,2.97
2022-07-31T16:27:09.886Z,2.87
2022-07-31T16:29:59.077Z,3.43
2022-07-31T16:32:31.375Z,2.83
2022-07-31T16:35:03.669Z,3.37
2022-07-31T16:37:50.099Z,2.63
2022-07-31T16:40:28.682Z,3.17
2022-07-31T16:43:48.585Z,3.07
2022-07-31T16:45:54.792Z,3.30
2022-07-31T16:48:26.167Z,2.87
2022-07-31T16:50:57.015Z,3.03
2022-07-31T16:54:11.135Z,3.60
2022-07-31T16:56:22.079Z,3.43
2022-07-31T16:58:54.466Z,3.27
2022-07-31T17:01:56.884Z,3.07
2022-07-31T17:04:16.193Z,3.33
2022-07-31T17:06:46.937Z,3.53
2022-07-31T17:09:19.315Z,3.27
2022-07-31T17:11:51.940Z,3.23
2022-07-31T17:14:23.894Z,3.97
2022-07-31T17:16:55.717Z,3.53
2022-07-31T17:19:42.793Z,3.40
2022-07-31T17:22:18.444Z,3.73
2022-07-31T17:24:52.603Z,3.93
2022-07-31T17:27:23.867Z,3.70
2022-07-31T17:29:54.588Z,3.40
2022-07-31T17:32:25.283Z,3.67
2022-07-31T17:34:56.156Z,3.43
2022-07-31T17:37:26.939Z,3.93
2022-07-31T17:39:59.305Z,3.43
2022-07-31T17:42:30.803Z,3.43
2022-07-31T17:45:02.800Z,4.27
2022-07-31T17:47:34.457Z,3.77
2022-07-31T17:50:05.195Z,4.40
2022-07-31T17:52:35.947Z,4.30
2022-07-31T17:55:09.468Z,4.00
2022-07-31T17:57:40.195Z,3.80
2022-07-31T18:00:12.190Z,3.90
2022-07-31T18:02:43.022Z,4.47
2022-07-31T18:05:13.813Z,4.00
2022-07-31T18:07:44.951Z,4.30
2022-07-31T18:10:45.081Z,4.77
2022-07-31T18:13:15.383Z,3.70
2022-07-31T18:15:46.119Z,4.70
2022-07-31T18:18:17.341Z,4.03
2022-07-31T18:20:48.067Z,5.13
2022-07-31T18:23:19.825Z,5.00
2022-07-31T18:25:53.489Z,4.80
2022-07-31T18:28:24.219Z,5.10
2022-07-31T18:30:55.119Z,5.00
2022-07-31T18:33:26.043Z,4.80
2022-07-31T18:35:57.790Z,4.60
2022-07-31T18:38:28.496Z,5.20
2022-07-31T18:41:00.849Z,4.97
2022-07-31T18:43:31.573Z,4.90
2022-07-31T18:46:02.813Z,4.93
2022-07-31T18:48:33.590Z,5.50
2022-07-31T18:51:05.377Z,4.20
2022-07-31T18:53:36.622Z,5.10
2022-07-31T18:56:12.042Z,5.10
2022-07-31T18:58:44.525Z,5.23
2022-07-31T19:01:15.367Z,5.13
2022-07-31T19:03:46.309Z,5.60
2022-07-31T19:06:17.407Z,5.33
2022-07-31T19:08:50.208Z,5.10
2022-07-31T19:11:24.048Z,4.80
2022-07-31T19:13:54.781Z,5.60
2022-07-31T19:16:25.541Z,5.00
2022-07-31T19:18:56.311Z,5.10
2022-07-31T19:21:42.028Z,5.57
2022-07-31T19:24:13.339Z,5.33
2022-07-31T19:26:45.739Z,5.17
2022-07-31T19:29:18.851Z,5.17
2022-07-31T19:31:50.005Z,5.30
2022-07-31T19:34:20.713Z,5.73
2022-07-31T19:36:51.459Z,5.30
2022-07-31T19:39:22.172Z,5.37
2022-07-31T19:42:21.573Z,5.47
2022-07-31T19:44:46.085Z,6.00
2022-07-31T19:47:16.800Z,5.73
2022-07-31T19:49:50.323Z,5.20
2022-07-31T19:52:21.894Z,5.70
2022-07-31T19:54:52.588Z,5.30
2022-07-31T19:57:24.924Z,5.90
2022-07-31T19:59:56.651Z,5.30
2022-07-31T20:02:27.590Z,5.77
2022-07-31T20:04:58.522Z,5.43
2022-07-31T20:07:33.111Z,6.00
2022-07-31T20:10:04.215Z,6.30
2022-07-31T20:12:36.577Z,6.50
2022-07-31T20:15:08.137Z,6.13
2022-07-31T20:17:39.339Z,6.23
2022-07-31T20:20:15.457Z,6.13
2022-07-31T20:22:46.879Z,6.80
2022-07-31T20:25:19.812Z,6.50
2022-07-31T20:27:52.650Z,6.83
2022-07-31T20:30:25.879Z,6.40
2022-07-31T20:32:56.631Z,7.03
2022-07-31T20:35:29.029Z,7.37
2022-07-31T20:38:18.073Z,6.97
2022-07-31T20:40:54.674Z,7.60
2022-07-31T20:43:29.896Z,6.90
2022-07-31T20:46:01.612Z,7.57
2022-07-31T20:48:33.540Z,7.57
2022-07-31T20:51:05.185Z,7.10
2022-07-31T20:53:36.477Z,7.87
2022-07-31T20:56:07.447Z,7.03
2022-07-31T20:58:39.858Z,6.97
2022-07-31T21:01:10.801Z,7.10
2022-07-31T21:03:42.588Z,7.23
2022-07-31T21:06:14.311Z,7.00
2022-07-31T21:08:45.133Z,7.97
2022-07-31T21:11:15.892Z,6.73
2022-07-31T21:13:48.305Z,6.77
2022-07-31T21:16:21.132Z,7.37
2022-07-31T21:18:51.847Z,7.50
2022-07-31T21:21:22.538Z,7.50
2022-07-31T21:23:53.929Z,7.27
2022-07-31T21:26:29.110Z,7.20
2022-07-31T21:29:02.192Z,8.10
2022-07-31T21:31:33.320Z,7.37
2022-07-31T21:34:04.597Z,7.03
2022-07-31T21:36:35.812Z,7.07
2022-07-31T21:39:06.949Z,7.67
2022-07-31T21:41:43.326Z,7.57
2022-07-31T21:44:17.011Z,7.90
2022-07-31T21:46:51.919Z,7.50
2022-07-31T21:49:24.585Z,7.90
2022-07-31T21:51:55.883Z,7.43
2022-07-31T21:54:26.592Z,8.13
2022-07-31T21:56:57.335Z,7.93
2022-07-31T21:59:30.447Z,7.73
2022-07-31T22:02:02.212Z,7.57
2022-07-31T22:04:34.816Z,7.67
2022-07-31T22:07:22.531Z,7.50
2022-07-31T22:09:53.248Z,6.90
2022-07-31T22:12:23.979Z,7.90
2022-07-31T22:14:56.372Z,8.10
2022-07-31T22:17:27.137Z,8.90
2022-07-31T22:20:00.766Z,7.87
2022-07-31T22:22:32.740Z,8.30
2022-07-31T22:25:04.085Z,7.83
2022-07-31T22:27:52.100Z,7.70
2022-07-31T22:30:26.172Z,6.77
2022-07-31T22:33:00.127Z,6.60
2022-07-31T22:35:31.568Z,7.87
2022-07-31T22:38:02.358Z,7.30
2022-07-31T22:40:33.249Z,6.97
2022-07-31T22:43:04.198Z,7.33
2022-07-31T22:45:56.858Z,6.23
2022-07-31T22:48:28.672Z,7.40
2022-07-31T22:50:59.815Z,6.73
2022-07-31T22:53:30.840Z,7.23
2022-07-31T22:56:01.570Z,8.27
2022-07-31T22:58:32.283Z,7.27
2022-07-31T23:01:07.286Z,7.40
2022-07-31T23:03:38.002Z,8.37
2022-07-31T23:06:30.005Z,7.17
2022-07-31T23:08:59.813Z,6.90
2022-07-31T23:11:30.870Z,7.20
2022-07-31T23:14:01.633Z,6.60
2022-07-31T23:16:34.139Z,7.00
2022-07-31T23:19:04.908Z,6.23
2022-07-31T23:21:35.715Z,6.90
2022-07-31T23:24:06.628Z,6.80
2022-07-31T23:26:37.408Z,7.20
2022-07-31T23:29:08.120Z,6.90
2022-07-31T23:31:40.556Z,6.57
2022-07-31T23:34:11.688Z,7.70
2022-07-31T23:36:42.401Z,7.17
2022-07-31T23:39:14.084Z,6.70
2022-07-31T23:42:01.601Z,6.50
2022-07-31T23:44:32.807Z,7.10
2022-07-31T23:47:15.998Z,6.70
2022-07-31T23:49:46.885Z,7.03
2022-07-31T23:52:17.720Z,7.10
2022-07-31T23:54:48.590Z,7.20
2022-07-31T23:57:19.392Z,6.23
2022-07-31T23:59:50.101Z,7.73
